createdAt,value
2023-02-07T00:01:18.360Z,5.60
2023-02-07T00:03:46.134Z,5.59
2023-02-07T00:06:15.083Z,5.56
2023-02-07T00:08:44.309Z,5.54
2023-02-07T00:11:13.197Z,5.54
2023-02-07T00:13:40.846Z,5.52
2023-02-07T00:16:09.468Z,5.54
2023-02-07T00:18:37.401Z,5.54
2023-02-07T00:21:06.664Z,5.53
2023-02-07T00:23:34.494Z,5.54
2023-02-07T00:26:03.739Z,5.30
2023-02-07T00:28:31.471Z,5.50
2023-02-07T00:31:06.632Z,5.44
2023-02-07T00:33:35.111Z,5.47
2023-02-07T00:36:04.290Z,5.44
2023-02-07T00:38:32.139Z,5.45
2023-02-07T00:41:01.488Z,5.42
2023-02-07T00:43:31.150Z,5.03
2023-02-07T00:45:59.476Z,5.38
2023-02-07T00:48:27.414Z,5.33
2023-02-07T00:50:55.117Z,5.34
2023-02-07T00:53:23.163Z,5.34
2023-02-07T00:55:50.846Z,5.31
2023-02-07T00:58:18.606Z,5.31
2023-02-07T01:00:47.682Z,5.26
2023-02-07T01:03:15.558Z,5.22
2023-02-07T01:05:43.238Z,5.28
2023-02-07T01:08:11.004Z,5.26
2023-02-07T01:10:40.232Z,5.24
2023-02-07T01:13:08.040Z,5.21
2023-02-07T01:15:37.859Z,5.18
2023-02-07T01:18:08.016Z,5.17
2023-02-07T01:20:35.768Z,5.10
2023-02-07T01:23:03.583Z,5.08
2023-02-07T01:25:31.436Z,5.08
2023-02-07T01:27:59.333Z,5.05
2023-02-07T01:30:27.265Z,4.98
2023-02-07T01:32:55.002Z,5.00
2023-02-07T01:35:24.145Z,5.00
2023-02-07T01:37:51.820Z,4.95
2023-02-07T01:40:19.678Z,4.96
2023-02-07T01:42:47.359Z,4.95
2023-02-07T01:45:24.270Z,4.94
2023-02-07T01:47:52.574Z,4.94
2023-02-07T01:50:20.522Z,4.92
2023-02-07T01:52:49.533Z,4.90
2023-02-07T01:55:20.795Z,4.62
2023-02-07T01:57:48.477Z,4.86
2023-02-07T02:00:16.549Z,4.85
2023-02-07T02:02:44.592Z,4.53
2023-02-07T02:05:12.625Z,4.83
2023-02-07T02:07:40.748Z,4.82
2023-02-07T02:10:15.094Z,4.75
2023-02-07T02:12:53.871Z,4.33
2023-02-07T02:15:29.973Z,4.55
2023-02-07T02:18:04.055Z,4.75
2023-02-07T02:21:00.652Z,4.75
2023-02-07T02:23:34.390Z,4.72
2023-02-07T02:26:42.435Z,4.67
2023-02-07T02:29:47.157Z,4.66
2023-02-07T02:32:56.775Z,4.66
2023-02-07T02:35:29.736Z,4.62
2023-02-07T02:37:59.564Z,4.62
2023-02-07T02:40:30.195Z,4.59
2023-02-07T02:43:00.999Z,4.57
2023-02-07T02:45:29.837Z,4.58
2023-02-07T02:47:57.668Z,4.56
2023-02-07T02:50:29.283Z,4.26
2023-02-07T02:52:57.155Z,4.44
2023-02-07T02:55:34.609Z,4.50
2023-02-07T02:58:03.680Z,4.47
2023-02-07T03:00:41.456Z,4.10
2023-02-07T03:03:27.507Z,4.42
2023-02-07T03:06:00.738Z,4.02
2023-02-07T03:08:32.421Z,4.33
2023-02-07T03:11:04.518Z,4.03
2023-02-07T03:13:34.069Z,4.13
2023-02-07T03:16:05.816Z,4.09
2023-02-07T03:18:38.344Z,4.28
2023-02-07T03:21:09.874Z,4.28
2023-02-07T03:23:37.509Z,3.87
2023-02-07T03:26:05.630Z,4.26
2023-02-07T03:28:33.304Z,4.20
2023-02-07T03:31:01.531Z,4.21
2023-02-07T03:33:29.504Z,4.17
2023-02-07T03:35:58.812Z,4.17
2023-02-07T03:38:27.840Z,4.17
2023-02-07T03:40:58.785Z,3.88
2023-02-07T03:43:27.940Z,4.14
2023-02-07T03:45:56.156Z,4.12
2023-02-07T03:48:23.823Z,4.10
2023-02-07T03:50:52.938Z,3.69
2023-02-07T03:53:20.670Z,4.08
2023-02-07T03:55:49.879Z,4.06
2023-02-07T03:58:17.551Z,4.03
2023-02-07T04:00:45.314Z,3.96
2023-02-07T04:03:13.077Z,3.95
2023-02-07T04:05:41.268Z,3.88
2023-02-07T04:08:08.930Z,3.92
2023-02-07T04:10:36.766Z,3.88
2023-02-07T04:13:05.803Z,3.84
2023-02-07T04:15:35.165Z,3.79
2023-02-07T04:18:02.811Z,3.82
2023-02-07T04:20:31.350Z,3.77
2023-02-07T04:22:59.037Z,3.77
2023-02-07T04:25:28.043Z,3.71
2023-02-07T04:27:55.893Z,3.75
2023-02-07T04:30:25.172Z,3.74
2023-02-07T04:32:53.213Z,3.75
2023-02-07T04:35:21.146Z,3.74
2023-02-07T04:37:48.785Z,3.74
2023-02-07T04:40:17.224Z,3.67
2023-02-07T04:42:44.908Z,3.73
2023-02-07T04:45:12.641Z,3.71
2023-02-07T04:47:41.709Z,3.66
2023-02-07T04:50:09.827Z,3.64
2023-02-07T04:52:37.979Z,3.64
2023-02-07T04:55:06.804Z,3.60
2023-02-07T04:57:34.570Z,3.58
2023-02-07T05:00:03.440Z,3.57
2023-02-07T05:02:31.343Z,2.83
2023-02-07T05:05:00.419Z,3.57
2023-02-07T05:07:28.218Z,3.59
2023-02-07T05:09:55.962Z,3.60
2023-02-07T05:12:23.737Z,3.59
2023-02-07T05:14:51.415Z,3.55
2023-02-07T05:17:19.268Z,3.55
2023-02-07T05:19:46.923Z,3.59
2023-02-07T05:22:16.143Z,3.58
2023-02-07T05:24:43.904Z,3.57
2023-02-07T05:27:13.674Z,3.52
2023-02-07T05:29:41.320Z,3.56
2023-02-07T05:34:42.771Z,3.54
2023-02-07T05:37:10.524Z,3.54
2023-02-07T05:39:39.750Z,3.52
2023-02-07T05:42:07.469Z,3.51
2023-02-07T05:44:35.357Z,3.50
2023-02-07T05:47:03.166Z,3.50
2023-02-07T05:49:31.107Z,3.47
2023-02-07T05:51:59.012Z,3.04
2023-02-07T05:54:27.069Z,3.47
2023-02-07T05:56:56.269Z,3.46
2023-02-07T05:59:24.145Z,3.47
2023-02-07T06:01:52.007Z,2.62
2023-02-07T06:04:19.931Z,3.46
2023-02-07T06:06:47.719Z,3.46
2023-02-07T06:09:15.518Z,3.45
2023-02-07T06:11:43.256Z,3.45
2023-02-07T06:14:12.565Z,3.44
2023-02-07T06:16:40.376Z,3.47
2023-02-07T06:19:09.315Z,3.02
2023-02-07T06:21:46.014Z,3.44
2023-02-07T06:24:14.897Z,3.41
2023-02-07T06:26:42.889Z,3.41
2023-02-07T06:29:14.823Z,3.15
2023-02-07T06:31:43.136Z,3.39
2023-02-07T06:34:11.374Z,3.39
2023-02-07T06:36:39.783Z,2.96
2023-02-07T06:39:07.796Z,3.38
2023-02-07T06:41:35.796Z,3.39
2023-02-07T06:44:04.075Z,3.25
2023-02-07T06:46:33.573Z,3.38
2023-02-07T06:49:05.189Z,3.35
2023-02-07T06:51:44.725Z,3.22
2023-02-07T06:54:13.162Z,3.36
2023-02-07T06:56:41.122Z,3.35
2023-02-07T06:59:08.889Z,3.38
2023-02-07T07:01:38.287Z,3.39
2023-02-07T07:04:06.482Z,3.19
2023-02-07T07:06:34.483Z,3.41
2023-02-07T07:09:02.284Z,3.29
2023-02-07T07:11:36.592Z,3.35
2023-02-07T07:14:04.680Z,3.43
2023-02-07T07:16:32.758Z,3.45
2023-02-07T07:19:01.955Z,3.38
2023-02-07T07:21:29.804Z,3.47
2023-02-07T07:23:57.680Z,3.47
2023-02-07T07:26:27.172Z,3.16
2023-02-07T07:29:00.165Z,2.77
2023-02-07T07:31:28.432Z,3.49
2023-02-07T07:33:56.479Z,3.49
2023-02-07T07:36:25.988Z,3.35
2023-02-07T07:38:53.900Z,3.59
2023-02-07T07:41:21.896Z,3.52
2023-02-07T07:43:49.915Z,3.80
2023-02-07T07:46:17.846Z,3.64
2023-02-07T07:49:01.581Z,3.75
2023-02-07T07:51:39.790Z,4.81
2023-02-07T07:54:20.587Z,5.85
2023-02-07T07:56:52.997Z,6.60
2023-02-07T07:59:24.400Z,7.50
2023-02-07T08:01:52.891Z,7.85
2023-02-07T08:04:34.883Z,8.63
2023-02-07T08:07:13.374Z,9.44
2023-02-07T08:09:50.206Z,10.34
2023-02-07T08:12:20.001Z,11.08
2023-02-07T08:14:53.565Z,11.44
2023-02-07T08:17:21.456Z,12.19
2023-02-07T08:20:38.760Z,12.92
2023-02-07T08:23:17.717Z,12.18
2023-02-07T08:25:51.337Z,10.78
2023-02-07T08:28:20.718Z,13.31
2023-02-07T08:30:53.128Z,12.95
2023-02-07T08:33:32.021Z,13.23
2023-02-07T08:36:05.706Z,15.11
2023-02-07T08:38:37.876Z,14.82
2023-02-07T08:41:08.284Z,14.29
2023-02-07T08:43:38.078Z,15.34
2023-02-07T08:46:08.919Z,16.73
2023-02-07T08:48:37.238Z,15.72
2023-02-07T08:51:17.866Z,15.46
2023-02-07T08:54:01.209Z,18.23
2023-02-07T08:56:37.577Z,18.87
2023-02-07T08:59:12.190Z,17.25
2023-02-07T09:01:44.122Z,16.89
2023-02-07T09:04:12.201Z,20.09
2023-02-07T09:06:40.166Z,20.54
2023-02-07T09:09:10.544Z,19.19
2023-02-07T09:11:38.632Z,19.18
2023-02-07T09:14:06.855Z,21.15
2023-02-07T09:16:38.071Z,21.04
2023-02-07T09:19:06.543Z,20.63
2023-02-07T09:21:34.505Z,21.52
2023-02-07T09:24:02.794Z,22.23
2023-02-07T09:26:34.338Z,22.15
2023-02-07T09:29:02.485Z,23.77
2023-02-07T09:31:30.585Z,23.57
2023-02-07T09:34:00.201Z,24.26
2023-02-07T09:36:29.497Z,24.01
2023-02-07T09:38:57.970Z,25.25
2023-02-07T09:41:28.657Z,25.38
2023-02-07T09:44:07.598Z,25.89
2023-02-07T09:46:37.061Z,26.22
2023-02-07T09:49:07.904Z,26.39
2023-02-07T09:51:36.041Z,26.82
2023-02-07T09:54:07.882Z,27.15
2023-02-07T09:56:36.132Z,27.47
2023-02-07T09:59:09.634Z,27.80
2023-02-07T10:01:38.724Z,26.35
2023-02-07T10:04:14.907Z,28.61
2023-02-07T10:06:42.927Z,28.23
2023-02-07T10:09:11.767Z,28.41
2023-02-07T10:11:42.868Z,28.87
2023-02-07T10:14:19.170Z,29.39
2023-02-07T10:16:50.044Z,29.84
2023-02-07T10:19:23.103Z,29.78
2023-02-07T10:21:55.126Z,29.85
2023-02-07T10:24:31.856Z,30.14
2023-02-07T10:27:05.185Z,30.69
2023-02-07T10:29:54.306Z,31.27
2023-02-07T10:32:39.242Z,29.86
2023-02-07T10:35:17.673Z,30.50
2023-02-07T10:38:00.535Z,29.27
2023-02-07T10:40:31.129Z,30.65
2023-02-07T10:43:09.474Z,31.32
2023-02-07T10:45:49.839Z,32.47
2023-02-07T10:48:20.146Z,31.11
2023-02-07T10:50:48.373Z,32.96
2023-02-07T10:53:22.859Z,33.64
2023-02-07T10:55:53.396Z,31.73
2023-02-07T10:58:25.226Z,34.15
2023-02-07T11:01:07.146Z,33.49
2023-02-07T11:03:39.467Z,33.71
2023-02-07T11:06:26.199Z,34.59
2023-02-07T11:09:14.085Z,33.19
2023-02-07T11:11:44.121Z,34.78
2023-02-07T11:14:17.413Z,35.13
2023-02-07T11:16:47.010Z,32.64
2023-02-07T11:19:17.963Z,33.39
2023-02-07T11:21:46.946Z,34.11
2023-02-07T11:24:16.014Z,35.56
2023-02-07T11:26:57.674Z,35.76
2023-02-07T11:29:48.794Z,34.86
2023-02-07T11:32:17.898Z,36.07
2023-02-07T11:34:47.414Z,36.50
2023-02-07T11:37:27.148Z,36.67
2023-02-07T11:39:55.651Z,36.78
2023-02-07T11:42:24.819Z,36.92
2023-02-07T11:44:52.771Z,37.03
2023-02-07T11:47:23.699Z,37.32
2023-02-07T11:49:52.717Z,37.62
2023-02-07T11:52:20.436Z,38.08
2023-02-07T11:54:53.175Z,38.45
2023-02-07T11:57:21.070Z,38.89
2023-02-07T11:59:51.289Z,39.11
2023-02-07T12:02:20.946Z,39.56
2023-02-07T12:04:50.108Z,39.77
2023-02-07T12:07:19.980Z,39.91
2023-02-07T12:09:48.664Z,40.27
2023-02-07T12:12:17.613Z,40.25
2023-02-07T12:14:48.726Z,40.55
2023-02-07T12:17:18.274Z,40.67
2023-02-07T12:19:53.138Z,40.75
2023-02-07T12:22:22.474Z,40.34
2023-02-07T12:24:52.838Z,40.07
2023-02-07T12:27:20.756Z,40.13
2023-02-07T12:29:56.156Z,40.35
2023-02-07T12:32:31.075Z,40.61
2023-02-07T12:35:02.653Z,40.78
2023-02-07T12:37:34.954Z,40.25
2023-02-07T12:40:05.845Z,39.64
2023-02-07T12:42:39.532Z,39.01
2023-02-07T12:45:08.425Z,38.36
2023-02-07T12:47:44.959Z,37.67
2023-02-07T12:50:24.942Z,37.10
2023-02-07T12:52:58.773Z,36.27
2023-02-07T12:55:37.358Z,34.54
2023-02-07T12:58:12.799Z,31.83
2023-02-07T13:00:46.623Z,29.05
2023-02-07T13:03:19.681Z,26.72
2023-02-07T13:05:54.718Z,25.06
2023-02-07T13:08:27.700Z,23.30
2023-02-07T13:10:59.621Z,22.01
2023-02-07T13:13:30.108Z,21.02
2023-02-07T13:16:01.251Z,19.95
2023-02-07T13:18:35.304Z,19.01
2023-02-07T13:21:09.016Z,18.16
2023-02-07T13:23:43.991Z,17.51
2023-02-07T13:26:13.696Z,16.92
2023-02-07T13:28:43.367Z,16.60
2023-02-07T13:31:12.623Z,16.33
2023-02-07T13:33:40.902Z,15.56
2023-02-07T13:36:14.725Z,15.51
2023-02-07T13:39:08.767Z,15.10
2023-02-07T13:41:42.687Z,14.97
2023-02-07T13:44:16.010Z,14.71
2023-02-07T13:47:11.305Z,14.36
2023-02-07T13:49:43.700Z,14.09
2023-02-07T13:52:14.842Z,13.97
2023-02-07T13:54:44.762Z,14.15
2023-02-07T13:57:38.117Z,14.00
2023-02-07T14:00:08.960Z,13.82
2023-02-07T14:02:41.176Z,13.60
2023-02-07T14:05:10.345Z,13.67
2023-02-07T14:07:39.699Z,13.52
2023-02-07T14:10:08.978Z,13.16
2023-02-07T14:12:39.169Z,13.22
2023-02-07T14:15:36.411Z,13.28
2023-02-07T14:18:05.172Z,13.23
2023-02-07T14:20:49.482Z,12.69
2023-02-07T14:23:19.095Z,13.13
2023-02-07T14:25:47.248Z,13.11
2023-02-07T14:28:30.870Z,12.94
2023-02-07T14:31:01.817Z,12.75
2023-02-07T14:33:34.869Z,12.62
2023-02-07T14:36:21.688Z,12.56
2023-02-07T14:39:22.254Z,12.24
2023-02-07T14:41:51.388Z,12.31
2023-02-07T14:44:24.788Z,12.41
2023-02-07T14:46:53.125Z,12.38
2023-02-07T14:49:21.812Z,12.31
2023-02-07T14:51:50.456Z,12.18
2023-02-07T14:54:22.831Z,12.07
2023-02-07T14:57:06.209Z,12.31
2023-02-07T14:59:36.223Z,11.78
2023-02-07T15:02:29.539Z,12.26
2023-02-07T15:04:57.309Z,12.22
2023-02-07T15:07:24.997Z,12.22
2023-02-07T15:09:54.122Z,12.19
2023-02-07T15:12:27.253Z,12.11
2023-02-07T15:14:56.911Z,12.15
2023-02-07T15:17:28.900Z,12.11
2023-02-07T15:20:01.366Z,12.11
2023-02-07T15:22:29.821Z,12.08
2023-02-07T15:24:59.100Z,12.05
2023-02-07T15:27:27.976Z,12.08
2023-02-07T15:29:56.287Z,12.10
2023-02-07T15:32:24.268Z,12.06
2023-02-07T15:34:52.056Z,12.06
2023-02-07T15:37:22.160Z,11.98
2023-02-07T15:39:59.168Z,11.72
2023-02-07T15:42:26.893Z,11.91
2023-02-07T15:44:55.231Z,11.92
2023-02-07T15:47:36.192Z,11.89
2023-02-07T15:50:05.397Z,11.83
2023-02-07T15:52:34.318Z,11.57
2023-02-07T15:55:05.098Z,11.75
2023-02-07T15:57:35.285Z,11.27
2023-02-07T16:00:04.900Z,11.46
2023-02-07T16:02:36.794Z,11.22
2023-02-07T16:05:09.368Z,11.52
2023-02-07T16:07:37.189Z,11.50
2023-02-07T16:10:20.173Z,11.42
2023-02-07T16:12:50.422Z,11.27
2023-02-07T16:15:26.416Z,11.04
2023-02-07T16:17:55.346Z,10.91
2023-02-07T16:20:23.117Z,11.09
2023-02-07T16:22:52.907Z,10.68
2023-02-07T16:25:23.515Z,10.95
2023-02-07T16:27:52.717Z,10.89
2023-02-07T16:30:21.688Z,10.78
2023-02-07T16:32:49.403Z,10.76
2023-02-07T16:35:19.103Z,10.68
2023-02-07T16:37:46.815Z,10.62
2023-02-07T16:40:14.650Z,10.56
2023-02-07T16:42:44.133Z,10.48
2023-02-07T16:45:17.547Z,10.19
2023-02-07T16:47:45.324Z,10.37
2023-02-07T16:50:18.076Z,10.30
2023-02-07T16:52:46.503Z,10.17
2023-02-07T16:55:14.288Z,10.14
2023-02-07T16:57:43.383Z,10.12
2023-02-07T17:00:15.449Z,10.08
2023-02-07T17:02:43.282Z,10.01
2023-02-07T17:05:11.230Z,9.75
2023-02-07T17:07:39.103Z,9.85
2023-02-07T17:10:16.928Z,9.32
2023-02-07T17:12:46.498Z,9.72
2023-02-07T17:15:14.317Z,9.66
2023-02-07T17:17:42.042Z,9.61
2023-02-07T17:20:20.317Z,9.30
2023-02-07T17:22:48.358Z,9.50
2023-02-07T17:25:17.582Z,9.42
2023-02-07T17:27:46.763Z,9.28
2023-02-07T17:30:18.016Z,9.00
2023-02-07T17:32:45.862Z,8.97
2023-02-07T17:35:13.723Z,8.89
2023-02-07T17:37:41.392Z,9.01
2023-02-07T17:40:18.530Z,8.73
2023-02-07T17:42:47.603Z,8.81
2023-02-07T17:45:15.450Z,8.74
2023-02-07T17:47:43.186Z,8.44
2023-02-07T17:52:44.846Z,8.14
2023-02-07T17:55:12.726Z,8.47
2023-02-07T17:57:41.452Z,8.28
2023-02-07T18:00:15.666Z,8.47
2023-02-07T18:02:45.833Z,8.47
2023-02-07T18:05:14.562Z,8.26
2023-02-07T18:07:43.044Z,8.13
2023-02-07T18:10:11.965Z,8.07
2023-02-07T18:12:44.284Z,8.11
2023-02-07T18:15:13.514Z,8.09
2023-02-07T18:17:41.299Z,8.11
2023-02-07T18:20:15.049Z,8.01
2023-02-07T18:22:45.887Z,7.92
2023-02-07T18:25:19.977Z,7.98
2023-02-07T18:27:51.149Z,7.71
2023-02-07T18:30:20.946Z,7.89
2023-02-07T18:32:48.822Z,7.84
2023-02-07T18:35:16.649Z,7.81
2023-02-07T18:37:44.472Z,7.57
2023-02-07T18:40:15.634Z,7.63
2023-02-07T18:42:45.995Z,7.57
2023-02-07T18:45:15.578Z,7.52
2023-02-07T18:47:44.860Z,7.61
2023-02-07T18:50:12.846Z,7.10
2023-02-07T18:52:40.587Z,7.54
2023-02-07T18:55:11.222Z,7.48
2023-02-07T18:57:39.124Z,7.46
2023-02-07T19:00:11.446Z,7.39
2023-02-07T19:02:39.306Z,7.39
2023-02-07T19:05:09.092Z,7.29
2023-02-07T19:07:36.970Z,7.27
2023-02-07T19:10:04.835Z,7.11
2023-02-07T19:12:32.636Z,6.94
2023-02-07T19:15:00.552Z,7.15
2023-02-07T19:17:28.720Z,6.91
2023-02-07T19:19:56.898Z,6.97
2023-02-07T19:22:35.244Z,7.05
2023-02-07T19:25:03.857Z,6.75
2023-02-07T19:27:31.759Z,7.00
2023-02-07T19:29:59.865Z,6.93
2023-02-07T19:32:27.826Z,6.90
2023-02-07T19:34:55.707Z,6.73
2023-02-07T19:37:23.633Z,6.65
2023-02-07T19:39:56.422Z,6.82
2023-02-07T19:42:25.110Z,6.77
2023-02-07T19:44:53.121Z,6.71
2023-02-07T19:47:21.036Z,6.63
2023-02-07T19:49:51.736Z,6.55
2023-02-07T19:52:19.990Z,6.66
2023-02-07T19:54:48.006Z,6.66
2023-02-07T19:57:17.130Z,6.60
2023-02-07T19:59:45.641Z,6.58
2023-02-07T20:02:13.953Z,6.53
2023-02-07T20:04:41.910Z,6.50
2023-02-07T20:07:09.993Z,6.49
2023-02-07T20:09:37.983Z,6.45
2023-02-07T20:12:07.388Z,6.43
2023-02-07T20:14:37.984Z,6.17
2023-02-07T20:17:07.319Z,6.37
2023-02-07T20:19:36.186Z,6.36
2023-02-07T20:22:03.878Z,6.18
2023-02-07T20:24:31.717Z,5.82
2023-02-07T20:26:59.593Z,6.11
2023-02-07T20:29:27.872Z,5.80
2023-02-07T20:31:57.078Z,6.21
2023-02-07T20:34:24.934Z,6.18
2023-02-07T20:36:52.640Z,5.66
2023-02-07T20:39:22.420Z,6.11
2023-02-07T20:41:50.358Z,5.76
2023-02-07T20:44:19.473Z,6.02
2023-02-07T20:46:48.860Z,5.64
2023-02-07T20:49:20.740Z,5.89
2023-02-07T20:51:49.565Z,5.75
2023-02-07T20:54:17.873Z,5.92
2023-02-07T20:56:45.776Z,5.90
2023-02-07T20:59:18.653Z,5.87
2023-02-07T21:01:46.799Z,5.86
2023-02-07T21:04:14.574Z,5.73
2023-02-07T21:06:43.668Z,5.81
2023-02-07T21:09:12.203Z,5.78
2023-02-07T21:11:41.115Z,5.28
2023-02-07T21:14:10.183Z,5.31
2023-02-07T21:16:38.341Z,5.58
2023-02-07T21:19:06.465Z,5.36
2023-02-07T21:21:34.246Z,5.50
2023-02-07T21:24:04.968Z,5.47
2023-02-07T21:26:32.800Z,5.45
2023-02-07T21:29:00.760Z,5.02
2023-02-07T21:31:28.635Z,5.35
2023-02-07T21:33:56.722Z,5.31
2023-02-07T21:36:25.792Z,5.28
2023-02-07T21:38:54.551Z,4.85
2023-02-07T21:41:24.671Z,5.24
2023-02-07T21:43:52.866Z,5.18
2023-02-07T21:46:22.941Z,4.81
2023-02-07T21:48:51.531Z,4.80
2023-02-07T21:51:20.127Z,5.11
2023-02-07T21:53:48.892Z,5.00
2023-02-07T21:56:17.505Z,5.11
2023-02-07T21:58:46.736Z,5.00
2023-02-07T22:01:15.406Z,4.65
2023-02-07T22:03:45.340Z,5.13
2023-02-07T22:06:13.447Z,5.07
2023-02-07T22:08:46.241Z,5.16
2023-02-07T22:11:13.971Z,5.16
2023-02-07T22:13:42.912Z,4.74
2023-02-07T22:16:13.220Z,5.06
2023-02-07T22:18:41.069Z,5.14
2023-02-07T22:21:09.963Z,5.11
2023-02-07T22:23:37.859Z,5.11
2023-02-07T22:26:05.966Z,5.07
2023-02-07T22:28:33.780Z,4.82
2023-02-07T22:31:01.671Z,5.00
2023-02-07T22:33:30.901Z,4.50
2023-02-07T22:35:58.630Z,4.92
2023-02-07T22:38:26.523Z,4.90
2023-02-07T22:40:54.280Z,4.86
2023-02-07T22:43:24.301Z,4.96
2023-02-07T22:45:52.041Z,4.79
2023-02-07T22:48:19.868Z,4.96
2023-02-07T22:50:49.197Z,4.95
2023-02-07T22:53:17.090Z,4.86
2023-02-07T22:55:44.832Z,4.93
2023-02-07T22:58:13.374Z,4.92
2023-02-07T23:00:47.312Z,4.89
2023-02-07T23:03:15.058Z,4.90
2023-02-07T23:05:42.864Z,4.89
2023-02-07T23:08:13.370Z,4.63
2023-02-07T23:10:41.469Z,4.85
2023-02-07T23:13:09.473Z,4.85
2023-02-07T23:15:37.301Z,4.48
2023-02-07T23:18:05.412Z,4.75
2023-02-07T23:20:33.200Z,4.81
2023-02-07T23:23:01.016Z,4.79
2023-02-07T23:25:30.133Z,4.79
2023-02-07T23:27:57.975Z,4.80
2023-02-07T23:30:25.872Z,4.77
2023-02-07T23:32:53.640Z,4.79
2023-02-07T23:35:21.531Z,4.75
2023-02-07T23:37:50.371Z,4.72
2023-02-07T23:40:18.448Z,4.76
2023-02-07T23:42:47.835Z,4.53
2023-02-07T23:45:15.792Z,4.70
2023-02-07T23:47:43.503Z,4.67
2023-02-07T23:50:11.418Z,4.40
2023-02-07T23:52:39.187Z,4.52
2023-02-07T23:55:07.871Z,4.65
2023-02-07T23:57:36.696Z,4.51
